Time;durP1;ratioP1;P1;durP2;ratioP2;P2;SDS_P1;SDS_P2;PMS_P1;PMS_P2;Temp;Humidity;BMP_temperature;BMP_pressure;BME280_temperature;BME280_humidity;BME280_pressure;Samples;Min_cycle;Max_cycle;Signal;HPM_P1;HPM_P2
2022/03/29 00:01:05;;;;;;;48.88;28.58;;;;;;;4.44;100.00;100188.34;5037110;28;20016;-86
2022/03/29 00:03:58;;;;;;;55.42;29.90;;;;;;;4.40;100.00;100189.28;5036295;28;20017;-86
2022/03/29 00:06:26;;;;;;;51.92;29.55;;;;;;;4.27;100.00;100184.06;5054764;28;20020;-86
2022/03/29 00:08:56;;;;;;;57.88;29.60;;;;;;;4.32;100.00;100187.56;5054362;28;20025;-86
2022/03/29 00:11:21;;;;;;;53.42;29.75;;;;;;;4.35;100.00;100190.19;5035734;28;20032;-86
2022/03/29 00:13:54;;;;;;;54.90;31.30;;;;;;;4.39;100.00;100195.44;5054059;28;20029;-86
2022/03/29 00:16:22;;;;;;;58.70;31.97;;;;;;;4.36;100.00;100181.34;5053885;28;20029;-86
2022/03/29 00:18:48;;;;;;;58.00;31.42;;;;;;;4.35;100.00;100184.91;5053740;28;20066;-86
2022/03/29 00:21:19;;;;;;;59.08;30.77;;;;;;;4.37;100.00;100176.94;5036744;28;20025;-86
2022/03/29 00:23:54;;;;;;;57.17;28.65;;;;;;;4.36;100.00;100178.72;5054129;28;20417;-86
2022/03/29 00:26:20;;;;;;;59.58;29.20;;;;;;;4.40;100.00;100176.06;5035992;28;20048;-86
2022/03/29 00:28:48;;;;;;;59.42;30.90;;;;;;;4.42;100.00;100174.28;5034757;28;20037;-86
2022/03/29 00:31:26;;;;;;;;;;;;;;;;;;;;;
2022/03/29 00:33:55;;;;;;;53.10;28.85;;;;;;;4.52;100.00;100175.09;5053861;28;20025;-86
2022/03/29 00:36:27;;;;;;;58.13;28.40;;;;;;;4.60;100.00;100161.81;5035787;28;20036;-86
2022/03/29 00:39:00;;;;;;;50.50;26.63;;;;;;;4.56;100.00;100160.97;5036250;28;20486;-86
2022/03/29 00:41:28;;;;;;;;;;;;;;;4.62;100.00;100162.66;5040677;28;20566;-85
2022/03/29 00:44:09;;;;;;;48.50;26.30;;;;;;;4.64;100.00;100155.63;5036867;28;19915;-86
2022/03/29 00:46:43;;;;;;;47.38;26.80;;;;;;;4.63;100.00;100156.50;5054407;28;20017;-85
2022/03/29 00:49:14;;;;;;;48.97;26.80;;;;;;;4.73;100.00;100152.91;5034372;28;20037;-85
2022/03/29 00:51:45;;;;;;;49.10;26.30;;;;;;;4.73;100.00;100152.00;5033969;28;20220;-85
2022/03/29 00:54:14;;;;;;;46.47;25.45;;;;;;;4.73;100.00;100146.72;5035085;28;20032;-85
2022/03/29 00:56:42;;;;;;;47.63;26.17;;;;;;;4.80;100.00;100148.44;5035758;28;20028;-86
2022/03/29 00:59:31;;;;;;;43.60;24.17;;;;;;;4.84;100.00;100141.34;5053583;28;20466;-86
2022/03/29 01:02:00;;;;;;;42.10;23.75;;;;;;;4.82;100.00;100138.69;5054123;28;20033;-85
2022/03/29 01:04:33;;;;;;;42.33;24.75;;;;;;;4.84;100.00;100136.06;5055728;28;20401;-88
2022/03/29 01:07:04;;;;;;;41.45;23.45;;;;;;;4.78;100.00;100151.09;5035996;28;20030;-88
2022/03/29 01:09:34;;;;;;;39.95;23.85;;;;;;;4.73;100.00;100137.03;5037363;28;20123;-88
2022/03/29 01:12:07;;;;;;;43.45;24.05;;;;;;;4.85;100.00;100132.50;5058249;28;20025;-88
2022/03/29 01:14:32;;;;;;;41.93;24.20;;;;;;;4.87;100.00;100128.09;5040188;28;20450;-87
2022/03/29 01:19:50;;;;;;;39.85;23.30;;;;;;;4.89;100.00;100131.59;5057376;28;20162;-86
2022/03/29 01:22:34;;;;;;;42.83;23.92;;;;;;;4.77;100.00;100119.34;5038938;28;20044;-86
2022/03/29 01:25:13;;;;;;;40.35;22.35;;;;;;;4.75;100.00;100122.03;5040080;28;20689;-87
2022/03/29 01:27:45;;;;;;;42.65;24.15;;;;;;;4.65;100.00;100120.34;5039951;28;20025;-85
2022/03/29 01:30:22;;;;;;;40.22;23.90;;;;;;;4.68;100.00;100128.25;5038045;28;20037;-86
2022/03/29 01:32:55;;;;;;;43.10;24.77;;;;;;;4.76;100.00;100120.25;5057374;28;20470;-87
2022/03/29 01:35:33;;;;;;;39.97;23.17;;;;;;;4.80;100.00;100116.69;5056940;28;20033;-86
2022/03/29 01:38:04;;;;;;;42.33;23.80;;;;;;;4.72;100.00;100114.09;5037927;28;20025;-87
2022/03/29 01:40:33;;;;;;;40.97;22.92;;;;;;;4.77;100.00;100114.06;5038779;28;20040;-87
2022/03/29 01:43:03;;;;;;;44.95;23.63;;;;;;;4.75;100.00;100114.09;5056827;28;20067;-87
2022/03/29 01:45:34;;;;;;;41.50;23.15;;;;;;;4.78;100.00;100116.72;5056628;28;20551;-86
2022/03/29 01:48:02;;;;;;;41.63;23.80;;;;;;;4.72;100.00;100105.28;5056561;28;20032;-85
2022/03/29 01:50:31;;;;;;;41.53;23.45;;;;;;;4.73;100.00;100107.94;5038263;28;20063;-86
2022/03/29 01:53:17;;;;;;;40.80;22.85;;;;;;;4.74;100.00;100104.38;5056617;28;20032;-86
2022/03/29 01:56:03;;;;;;;41.78;24.35;;;;;;;4.74;100.00;100107.03;5038345;28;20037;-86
2022/03/29 01:58:37;;;;;;;42.33;25.10;;;;;;;4.63;100.00;100106.25;5056207;28;20036;-86
2022/03/29 02:01:13;;;;;;;43.90;24.85;;;;;;;4.54;100.00;100099.25;5053643;28;20036;-86
2022/03/29 02:03:45;;;;;;;44.72;24.90;;;;;;;4.54;100.00;100107.19;5039150;28;20056;-86
2022/03/29 02:06:19;;;;;;;45.22;25.38;;;;;;;4.55;100.00;100098.38;5039112;28;20052;-86
2022/03/29 02:09:01;;;;;;;44.33;25.80;;;;;;;4.52;100.00;100091.34;5038591;28;20065;-86
2022/03/29 02:11:26;;;;;;;43.40;25.17;;;;;;;4.57;100.00;100099.25;5038484;28;20037;-86
2022/03/29 02:13:58;;;;;;;44.95;24.33;;;;;;;4.59;100.00;100092.16;5055781;28;20375;-85
2022/03/29 02:16:23;;;;;;;45.17;24.75;;;;;;;4.56;100.00;100086.94;5056321;28;20375;-86
2022/03/29 02:18:52;;;;;;;46.05;26.10;;;;;;;4.53;100.00;100082.53;5037797;28;20576;-86
2022/03/29 02:21:22;;;;;;;47.47;26.20;;;;;;;4.46;100.00;100086.09;5038205;28;20036;-86
2022/03/29 02:23:48;;;;;;;49.63;27.83;;;;;;;4.48;100.00;100084.34;5038602;28;20032;-85
2022/03/29 02:26:13;;;;;;;50.13;27.17;;;;;;;4.44;100.00;100088.75;5038164;28;20029;-85
2022/03/29 02:28:42;;;;;;;50.45;28.33;;;;;;;4.42;100.00;100079.09;5037522;28;20505;-85
2022/03/29 02:31:08;;;;;;;55.00;29.20;;;;;;;4.39;100.00;100089.69;5037798;28;20509;-86
2022/03/29 02:33:34;;;;;;;56.38;29.27;;;;;;;4.40;100.00;100087.03;5037674;28;20035;-86
2022/03/29 02:36:12;;;;;;;54.97;29.75;;;;;;;4.46;100.00;100079.06;5037793;28;20025;-86
2022/03/29 02:38:47;;;;;;;54.72;29.88;;;;;;;4.48;100.00;100084.34;5037393;28;20402;-85
2022/03/29 02:41:21;;;;;;;52.88;28.52;;;;;;;4.50;100.00;100079.91;5037454;28;20394;-86
2022/03/29 02:43:50;;;;;;;48.72;28.30;;;;;;;4.47;100.00;100078.16;5037635;28;20101;-86
2022/03/29 02:46:27;;;;;;;52.72;29.38;;;;;;;4.38;100.00;100072.09;5038227;28;20474;-84
2022/03/29 02:51:28;;;;;;;51.10;27.27;;;;;;;4.37;100.00;100073.84;5074172;28;20060;-73
2022/03/29 02:53:54;;;;;;;50.83;27.88;;;;;;;4.43;100.00;100070.28;5074930;28;20074;-73
2022/03/29 02:56:19;;;;;;;46.53;25.38;;;;;;;4.46;100.00;100054.38;5075165;28;20028;-73
2022/03/29 02:58:44;;;;;;;47.50;24.85;;;;;;;4.46;100.00;100059.66;5075134;28;20021;-73
2022/03/29 03:01:09;;;;;;;46.45;25.20;;;;;;;4.44;100.00;100064.09;5075061;28;20085;-73
2022/03/29 03:03:35;;;;;;;45.75;25.52;;;;;;;4.51;100.00;100057.00;5074695;28;20028;-73
2022/03/29 03:06:01;;;;;;;41.53;23.63;;;;;;;4.48;100.00;100057.91;5074698;28;20025;-74
2022/03/29 03:08:27;;;;;;;42.83;24.45;;;;;;;4.41;100.00;100057.06;5074872;28;20457;-72
2022/03/29 03:10:52;;;;;;;40.92;23.20;;;;;;;4.40;100.00;100049.16;5074892;28;20031;-73
2022/03/29 03:13:17;;;;;;;43.40;23.40;;;;;;;4.31;100.00;100045.69;5074558;28;20028;-73
2022/03/29 03:15:43;;;;;;;43.25;24.13;;;;;;;4.35;100.00;100047.44;5074449;28;20393;-73
2022/03/29 03:18:09;;;;;;;44.03;23.20;;;;;;;4.47;100.00;100033.22;5074458;28;20024;-73
2022/03/29 03:20:35;;;;;;;40.83;22.58;;;;;;;4.46;100.00;100035.84;5074625;28;20032;-73
2022/03/29 03:23:01;;;;;;;41.75;23.98;;;;;;;4.44;100.00;100035.00;5073117;28;20043;-73
2022/03/29 03:25:27;;;;;;;41.85;23.63;;;;;;;4.40;100.00;100028.00;5072872;28;20016;-73
2022/03/29 03:27:52;;;;;;;43.20;22.85;;;;;;;4.44;100.00;100029.72;5074501;28;20098;-74
2022/03/29 03:30:17;;;;;;;41.50;23.25;;;;;;;4.43;100.00;100028.81;5072990;28;20404;-73
2022/03/29 03:32:43;;;;;;;42.33;22.98;;;;;;;4.26;100.00;100026.34;5073542;28;20040;-73
2022/03/29 03:35:10;;;;;;;43.60;23.38;;;;;;;4.20;100.00;100031.69;5072757;28;20031;-73
2022/03/29 03:37:35;;;;;;;47.00;24.33;;;;;;;4.30;100.00;100028.09;5074138;28;20104;-73
2022/03/29 03:40:05;;;;;;;43.72;24.05;;;;;;;4.28;100.00;100035.13;5074086;28;20020;-74
2022/03/29 03:42:31;;;;;;;42.75;23.50;;;;;;;4.22;100.00;100035.19;5074039;28;20021;-73
2022/03/29 03:44:58;;;;;;;45.90;24.50;;;;;;;4.21;100.00;100033.44;5073850;28;20433;-73
2022/03/29 03:47:24;;;;;;;47.47;25.30;;;;;;;4.10;100.00;100030.84;5073783;28;20026;-73
2022/03/29 03:49:49;;;;;;;45.83;23.80;;;;;;;4.07;100.00;100029.13;5073857;28;20029;-73
2022/03/29 03:52:14;;;;;;;52.10;26.85;;;;;;;4.09;100.00;100029.13;5073984;28;20036;-73
2022/03/29 03:54:40;;;;;;;50.13;25.90;;;;;;;4.22;100.00;100029.91;5072410;28;20024;-74
2022/03/29 03:57:05;;;;;;;48.03;24.63;;;;;;;4.23;100.00;100021.97;5074000;28;20020;-74
2022/03/29 03:59:31;;;;;;;44.03;23.85;;;;;;;4.25;100.00;100019.31;5073919;28;20016;-74
2022/03/29 04:01:57;;;;;;;45.08;24.08;;;;;;;4.29;100.00;100013.09;5072374;28;20024;-73
2022/03/29 04:04:23;;;;;;;44.80;23.92;;;;;;;4.28;100.00;100013.13;5073509;28;20154;-73
2022/03/29 04:06:48;;;;;;;44.95;23.83;;;;;;;4.19;100.00;100014.06;5073755;28;20069;-73
2022/03/29 04:09:13;;;;;;;47.35;24.13;;;;;;;4.26;100.00;100010.47;5073542;28;20099;-73
2022/03/29 04:11:38;;;;;;;45.92;24.40;;;;;;;4.28;100.00;100019.25;5073391;28;20399;-73
2022/03/29 04:14:04;;;;;;;42.78;23.83;;;;;;;4.31;100.00;100008.69;5073315;28;20017;-73
2022/03/29 04:16:30;;;;;;;46.58;24.45;;;;;;;4.22;100.00;100008.75;5073411;28;20394;-73
2022/03/29 04:18:55;;;;;;;46.53;25.25;;;;;;;4.25;100.00;99992.88;5073290;28;20095;-73
2022/03/29 04:21:21;;;;;;;46.13;25.63;;;;;;;4.17;100.00;99995.59;5073674;28;20426;-73
2022/03/29 04:23:46;;;;;;;43.33;24.02;;;;;;;4.23;100.00;99984.06;5072192;28;20564;-73
2022/03/29 04:26:11;;;;;;;50.53;25.45;;;;;;;4.25;100.00;99988.44;5073528;28;20024;-73
2022/03/29 04:28:37;;;;;;;43.92;24.45;;;;;;;4.30;100.00;99985.78;5073110;28;20025;-74
2022/03/29 04:31:02;;;;;;;46.42;24.58;;;;;;;4.33;100.00;99979.59;5073616;28;20024;-74
2022/03/29 04:33:28;;;;;;;46.95;24.25;;;;;;;4.33;100.00;99972.53;5073290;28;20470;-73
2022/03/29 04:35:54;;;;;;;49.17;24.55;;;;;;;4.24;100.00;99980.53;5071981;28;20122;-74
2022/03/29 04:38:20;;;;;;;47.17;25.15;;;;;;;4.17;100.00;99978.84;5071867;28;20017;-74
2022/03/29 04:40:46;;;;;;;48.85;24.80;;;;;;;4.18;100.00;99980.59;5071788;28;20016;-73
2022/03/29 04:43:11;;;;;;;47.63;24.17;;;;;;;4.18;100.00;99983.22;5073031;28;20028;-73
2022/03/29 04:45:36;;;;;;;48.65;24.95;;;;;;;4.17;100.00;99978.84;5072959;28;20070;-73
2022/03/29 04:48:02;;;;;;;47.53;25.00;;;;;;;4.24;100.00;99975.25;5073049;28;20107;-73
2022/03/29 04:50:27;;;;;;;52.05;25.27;;;;;;;4.26;100.00;99973.47;5072840;28;20477;-73
2022/03/29 04:52:52;;;;;;;47.65;24.60;;;;;;;4.16;100.00;99977.09;5073004;28;20056;-73
2022/03/29 04:55:19;;;;;;;45.53;24.40;;;;;;;4.30;100.00;99975.22;5071651;28;20024;-73
2022/03/29 04:57:47;;;;;;;47.83;24.17;;;;;;;4.33;100.00;99988.38;5072923;28;20071;-73
2022/03/29 05:00:16;;;;;;;49.58;26.25;;;;;;;4.22;100.00;99982.34;5072953;28;20077;-73
2022/03/29 05:02:43;;;;;;;46.40;24.63;;;;;;;4.28;100.00;99987.53;5073139;28;20020;-72
2022/03/29 05:05:10;;;;;;;47.85;25.55;;;;;;;4.25;100.00;99983.16;5072846;28;20020;-72
2022/03/29 05:07:36;;;;;;;48.15;25.08;;;;;;;4.17;100.00;99984.13;5072695;28;20017;-73
2022/03/29 05:10:02;;;;;;;46.88;25.05;;;;;;;4.18;100.00;99972.66;5072721;28;20025;-73
2022/03/29 05:12:28;;;;;;;47.75;25.08;;;;;;;4.20;100.00;99979.69;5072675;28;20070;-73
2022/03/29 05:14:54;;;;;;;51.45;25.20;;;;;;;4.21;100.00;99976.16;5071583;28;20024;-72
2022/03/29 05:17:19;;;;;;;52.05;25.33;;;;;;;4.28;100.00;99971.69;5072773;28;20074;-72
2022/03/29 05:19:44;;;;;;;46.08;25.30;;;;;;;4.35;100.00;99973.41;5073007;28;20027;-73
2022/03/29 05:22:09;;;;;;;50.67;25.85;;;;;;;4.32;100.00;99973.44;5072923;28;20030;-72
2022/03/29 05:24:35;;;;;;;49.08;25.60;;;;;;;4.34;100.00;99971.66;5072854;28;20078;-72
2022/03/29 05:27:00;;;;;;;49.72;26.08;;;;;;;4.34;100.00;99974.28;5072634;28;20492;-72
2022/03/29 05:29:27;;;;;;;49.88;24.70;;;;;;;4.31;100.00;99976.97;5072568;28;20028;-72
2022/03/29 05:31:53;;;;;;;47.97;24.45;;;;;;;4.43;100.00;99985.69;5071312;28;20032;-72
2022/03/29 05:34:19;;;;;;;49.80;25.92;;;;;;;4.45;100.00;99978.59;5072552;28;20374;-72
2022/03/29 05:36:45;;;;;;;53.63;26.20;;;;;;;4.44;100.00;99979.47;5072939;28;20020;-72
2022/03/29 05:39:13;;;;;;;50.72;25.98;;;;;;;4.29;100.00;99978.75;5072640;28;20047;-73
2022/03/29 05:41:40;;;;;;;46.92;25.63;;;;;;;4.28;100.00;99987.53;5072781;28;20466;-72
2022/03/29 05:44:05;;;;;;;51.47;26.95;;;;;;;4.32;100.00;99981.38;5072479;28;20046;-72
2022/03/29 05:49:15;;;;;;;51.55;26.05;;;;;;;4.42;100.00;99987.44;5072294;28;20397;-72
2022/03/29 05:51:41;;;;;;;51.53;26.15;;;;;;;4.50;100.00;99992.66;5071236;28;20036;-72
2022/03/29 05:54:06;;;;;;;50.88;25.90;;;;;;;4.46;100.00;99983.84;5072296;28;20035;-72
2022/03/29 05:56:31;;;;;;;48.08;24.10;;;;;;;4.41;100.00;99987.44;5075419;28;20025;-72
2022/03/29 05:58:57;;;;;;;44.38;23.63;;;;;;;4.34;100.00;99987.50;5076204;28;20430;-72
2022/03/29 06:01:22;;;;;;;49.05;23.85;;;;;;;4.26;100.00;99989.34;5075883;28;20020;-72
2022/03/29 06:03:48;;;;;;;50.20;24.95;;;;;;;4.28;100.00;99990.19;5075782;28;20055;-72
2022/03/29 06:06:14;;;;;;;52.58;25.50;;;;;;;4.28;100.00;99991.97;5074541;28;20528;-72
2022/03/29 06:08:40;;;;;;;51.13;26.05;;;;;;;4.23;100.00;99989.34;5075917;28;20017;-72
2022/03/29 06:11:07;;;;;;;48.58;25.80;;;;;;;4.37;100.00;99991.88;5074404;28;20397;-73
2022/03/29 06:13:32;;;;;;;57.22;27.05;;;;;;;4.47;100.00;99990.03;5075996;28;20099;-72
2022/03/29 06:15:58;;;;;;;50.88;25.52;;;;;;;4.53;100.00;99995.28;5074487;28;20033;-73
2022/03/29 06:18:23;;;;;;;52.80;26.15;;;;;;;4.60;100.00;99990.78;5074532;28;20044;-72
2022/03/29 06:20:49;;;;;;;52.15;26.58;;;;;;;4.61;100.00;99994.31;5075833;28;20024;-72
2022/03/29 06:23:14;;;;;;;51.45;25.33;;;;;;;4.53;100.00;99992.63;5075584;28;20397;-72
2022/03/29 06:25:39;;;;;;;51.80;24.75;;;;;;;4.53;100.00;99992.63;5074179;28;20477;-72
2022/03/29 06:28:05;;;;;;;47.55;24.92;;;;;;;4.60;100.00;99988.16;5075365;28;20028;-72
2022/03/29 06:30:31;;;;;;;45.03;22.90;;;;;;;4.71;100.00;99980.09;5075377;28;20511;-72
2022/03/29 06:32:56;;;;;;;45.05;23.27;;;;;;;4.68;100.00;99980.13;5074121;28;20032;-72
2022/03/29 06:35:25;;;;;;;46.70;22.48;;;;;;;4.61;100.00;99979.34;5075260;28;20032;-72
2022/03/29 06:37:55;;;;;;;47.47;23.08;;;;;;;4.65;100.00;99986.34;5075148;28;20020;-72
2022/03/29 06:40:22;;;;;;;46.53;23.70;;;;;;;4.69;100.00;99973.97;5075198;28;20155;-72
2022/03/29 06:42:47;;;;;;;43.33;23.15;;;;;;;4.75;100.00;99976.53;5075205;28;20070;-72
2022/03/29 06:45:13;;;;;;;44.83;22.83;;;;;;;4.69;100.00;99977.47;5075038;28;20103;-72
2022/03/29 06:47:39;;;;;;;42.38;22.88;;;;;;;4.71;100.00;99969.53;5075025;28;20532;-72
2022/03/29 06:50:05;;;;;;;44.17;22.38;;;;;;;4.74;100.00;99974.75;5074936;28;20042;-72
2022/03/29 06:52:49;;;;;;;45.75;22.45;;;;;;;4.84;100.00;99972.03;5075077;28;20028;-73
2022/03/29 06:55:17;;;;;;;44.58;22.02;;;;;;;4.62;100.00;99966.97;5074952;28;20024;-72
2022/03/29 06:57:43;;;;;;;44.75;23.15;;;;;;;4.76;100.00;99964.19;5073693;28;20059;-72
2022/03/29 07:00:09;;;;;;;40.72;21.25;;;;;;;4.84;100.00;99961.44;5073587;28;20051;-72
2022/03/29 07:02:35;;;;;;;46.42;21.95;;;;;;;4.85;100.00;99963.19;5074736;28;20481;-72
2022/03/29 07:05:01;;;;;;;39.05;22.05;;;;;;;4.97;100.00;99965.72;5074677;28;20108;-72
2022/03/29 07:07:26;;;;;;;46.92;23.02;;;;;;;4.90;100.00;99971.94;5073397;28;20021;-72
2022/03/29 07:12:50;;;;;;;44.08;22.98;;;;;;;4.85;100.00;99971.13;5075250;28;20027;-72
2022/03/29 07:15:16;;;;;;;39.15;22.17;;;;;;;4.80;100.00;99974.72;5075081;28;20111;-72
2022/03/29 07:17:42;;;;;;;38.63;21.10;;;;;;;4.80;100.00;99974.72;5074498;28;20091;-72
2022/03/29 07:20:08;;;;;;;36.67;20.48;;;;;;;4.79;100.00;99967.66;5073213;28;20017;-72
2022/03/29 07:22:35;;;;;;;38.33;21.48;;;;;;;4.80;100.00;99965.88;5074346;28;20508;-72
2022/03/29 07:25:00;;;;;;;40.72;21.90;;;;;;;4.78;100.00;99965.91;5073048;28;20070;-72
2022/03/29 07:27:25;;;;;;;40.15;21.05;;;;;;;4.74;100.00;99964.19;5074212;28;20020;-72
2022/03/29 07:29:52;;;;;;;41.30;21.60;;;;;;;4.78;100.00;99971.22;5073073;28;20067;-73
2022/03/29 07:32:18;;;;;;;35.25;20.27;;;;;;;4.90;100.00;99964.00;5074229;28;20035;-73
2022/03/29 07:34:43;;;;;;;40.30;20.85;;;;;;;4.94;100.00;99965.75;5074172;28;20025;-72
2022/03/29 07:37:09;;;;;;;37.55;20.42;;;;;;;4.98;100.00;99967.44;5074088;28;20028;-72
2022/03/29 07:39:34;;;;;;;39.42;20.83;;;;;;;5.01;100.00;99962.13;5072789;28;20077;-73
2022/03/29 07:41:59;;;;;;;39.67;21.10;;;;;;;4.91;100.00;99966.66;5073998;28;20020;-72
2022/03/29 07:44:25;;;;;;;39.30;21.05;;;;;;;5.03;100.00;99970.03;5073900;28;20552;-72
2022/03/29 07:46:50;;;;;;;38.88;20.33;;;;;;;5.03;100.00;99976.22;5073864;28;20024;-72
2022/03/29 07:49:16;;;;;;;37.10;20.92;;;;;;;5.14;100.00;99969.91;5073747;28;20016;-72
2022/03/29 07:51:41;;;;;;;39.83;21.25;;;;;;;5.09;100.00;99967.31;5074461;28;20028;-72
2022/03/29 07:54:07;;;;;;;38.83;20.80;;;;;;;5.23;100.00;99966.28;5072487;28;20021;-72
2022/03/29 07:56:32;;;;;;;37.58;20.25;;;;;;;5.17;100.00;99972.53;5073722;28;20394;-72
2022/03/29 07:58:58;;;;;;;44.80;22.17;;;;;;;4.96;100.00;99966.59;5073654;28;20363;-72
2022/03/29 08:01:23;;;;;;;40.63;20.75;;;;;;;4.90;100.00;99961.34;5073681;28;20036;-72
2022/03/29 08:03:48;;;;;;;38.45;21.52;;;;;;;4.86;100.00;99967.59;5073525;28;20020;-72
2022/03/29 08:06:14;;;;;;;40.85;22.13;;;;;;;4.98;100.00;99962.16;5073584;28;20020;-72
2022/03/29 08:08:40;;;;;;;40.25;21.38;;;;;;;4.80;100.00;99958.84;5073996;28;20154;-72
2022/03/29 08:11:08;;;;;;;39.15;20.88;;;;;;;4.83;100.00;99957.91;5073534;28;20371;-72
2022/03/29 08:13:34;;;;;;;43.80;22.85;;;;;;;4.97;100.00;99960.41;5073437;28;20095;-72
2022/03/29 08:16:01;;;;;;;43.67;22.40;;;;;;;5.08;100.00;99962.03;5073692;28;20098;-72
2022/03/29 08:18:28;;;;;;;38.20;21.27;;;;;;;5.13;100.00;99954.91;5072995;28;20020;-72
2022/03/29 08:20:53;;;;;;;36.38;19.75;;;;;;;5.14;100.00;99962.84;5073327;28;20390;-73
2022/03/29 08:23:18;;;;;;;39.90;20.70;;;;;;;5.16;100.00;99957.53;5072108;28;20024;-72
2022/03/29 08:25:44;;;;;;;38.25;20.38;;;;;;;5.24;100.00;99952.13;5073217;28;20059;-72
2022/03/29 08:28:10;;;;;;;34.17;21.10;;;;;;;5.34;100.00;99964.34;5073274;28;20017;-72
2022/03/29 08:30:36;;;;;;;35.80;19.48;;;;;;;5.39;100.00;99953.69;5071984;28;20074;-72
2022/03/29 08:33:02;;;;;;;39.80;20.90;;;;;;;5.27;100.00;99946.78;5073497;28;20417;-72
2022/03/29 08:35:29;;;;;;;39.40;21.52;;;;;;;5.19;100.00;99954.84;5073163;28;20382;-72
2022/03/29 08:37:54;;;;;;;35.15;20.10;;;;;;;5.16;100.00;99952.22;5071912;28;20020;-72
2022/03/29 08:40:26;;;;;;;40.67;21.52;;;;;;;5.35;100.00;99952.88;5073155;28;20016;-73
2022/03/29 08:42:54;;;;;;;37.60;20.20;;;;;;;5.48;100.00;99956.22;5071934;28;20020;-73
2022/03/29 08:45:25;;;;;;;40.78;21.00;;;;;;;5.64;100.00;99949.81;5073134;28;20024;-72
2022/03/29 08:47:52;;;;;;;38.22;20.55;;;;;;;5.66;100.00;99959.50;5073410;28;20081;-72
2022/03/29 08:50:17;;;;;;;38.97;20.67;;;;;;;5.65;100.00;99952.44;5116710;22;20577;-83
2022/03/29 08:52:44;;;;;;;38.33;19.83;;;;;;;5.67;100.00;99957.72;5074588;28;20095;-84
2022/03/29 08:55:18;;;;;;;35.13;20.15;;;;;;;5.67;100.00;99949.78;5074644;28;20096;-83
2022/03/29 08:57:48;;;;;;;;;;;;;;;5.92;100.00;99947.63;5075959;28;20103;-83
2022/03/29 09:00:18;;;;;;;37.15;20.65;;;;;;;5.90;100.00;99946.75;5079824;28;19915;-84
2022/03/29 09:02:46;;;;;;;36.75;20.05;;;;;;;5.74;100.00;99945.25;5080241;28;20562;-84
2022/03/29 09:05:16;;;;;;;35.53;19.60;;;;;;;5.77;100.00;99947.88;5082498;28;20039;-84
2022/03/29 09:07:51;;;;;;;35.00;19.88;;;;;;;5.65;100.00;99940.97;5080437;28;20032;-83
2022/03/29 09:10:27;;;;;;;37.67;20.58;;;;;;;5.65;100.00;99944.50;5079224;28;20047;-85
2022/03/29 09:13:41;;;;;;;37.28;20.15;;;;;;;5.85;100.00;99948.59;5080691;28;20477;-84
2022/03/29 09:16:08;;;;;;;36.90;20.40;;;;;;;5.93;100.00;99941.41;5076295;28;20040;-84
2022/03/29 09:18:37;;;;;;;37.85;19.98;;;;;;;6.08;100.00;99942.06;5074327;28;20040;-83
2022/03/29 09:21:19;;;;;;;36.78;19.88;;;;;;;5.95;100.00;99938.75;5072909;28;20031;-84
2022/03/29 09:24:12;;;;;;;42.25;20.00;;;;;;;5.97;100.00;99936.06;5074818;28;20028;-83
2022/03/29 09:26:46;;;;;;;39.42;20.88;;;;;;;5.75;100.00;99931.09;5073396;28;20024;-82
2022/03/29 09:29:23;;;;;;;37.95;19.67;;;;;;;6.06;100.00;99927.94;5073771;28;20382;-82
2022/03/29 09:32:17;;;;;;;37.40;20.73;;;;;;;6.19;100.00;99925.97;5077725;28;20481;-82
2022/03/29 09:34:46;;;;;;;;;;;;;;;6.10;100.00;99929.69;5072217;28;20032;-84
2022/03/29 09:37:32;;;;;;;37.80;20.67;;;;;;;6.41;100.00;99928.25;5078038;28;19938;-84
2022/03/29 09:39:57;;;;;;;37.40;20.23;;;;;;;6.36;100.00;99933.66;5078482;28;20039;-84
2022/03/29 09:42:34;;;;;;;36.58;20.23;;;;;;;6.34;99.97;99930.13;5077573;28;20040;-84
2022/03/29 09:45:03;;;;;;;36.05;19.45;;;;;;;6.36;100.00;99938.97;5080104;28;20032;-84
2022/03/29 09:47:31;;;;;;;44.03;20.05;;;;;;;6.40;100.00;99925.63;5077649;28;20603;-84
2022/03/29 09:49:58;;;;;;;37.75;20.75;;;;;;;6.44;100.00;99935.28;5078146;28;20473;-84
2022/03/29 09:52:39;;;;;;;41.30;20.23;;;;;;;6.64;100.00;99934.91;5078764;28;20052;-84
2022/03/29 09:55:16;;;;;;;42.20;20.33;;;;;;;6.48;100.00;99929.91;5076046;28;20021;-83
2022/03/29 09:57:44;;;;;;;38.28;20.52;;;;;;;6.74;98.74;99932.94;5078211;28;20024;-81
2022/03/29 10:00:13;;;;;;;40.00;20.80;;;;;;;6.92;98.27;99925.50;5077174;28;20119;-83
2022/03/29 10:02:45;;;;;;;36.45;19.83;;;;;;;7.17;94.71;99919.66;5076881;28;20043;-84
2022/03/29 10:05:12;;;;;;;31.90;18.40;;;;;;;7.57;93.15;99911.72;5078047;28;20043;-83
2022/03/29 10:07:47;;;;;;;38.13;19.90;;;;;;;7.97;92.48;99912.50;5077194;28;20439;-82
2022/03/29 10:10:22;;;;;;;37.58;19.35;;;;;;;8.20;90.92;99908.38;5077606;28;20023;-84
2022/03/29 10:12:54;;;;;;;34.75;18.80;;;;;;;8.33;89.88;99900.94;5077268;28;20028;-84
2022/03/29 10:15:21;;;;;;;37.92;18.85;;;;;;;8.78;87.56;99906.88;5077167;28;20114;-84
2022/03/29 10:17:48;;;;;;;36.45;18.55;;;;;;;8.69;86.36;99909.78;5079550;28;20470;-84
2022/03/29 10:20:22;;;;;;;32.00;17.83;;;;;;;8.47;86.99;99899.72;5077438;28;20020;-84
2022/03/29 10:22:47;;;;;;;;;;;;;;;8.91;83.63;99903.84;5078524;28;20096;-84
2022/03/29 10:25:16;;;;;;;33.28;17.75;;;;;;;8.40;84.90;99901.66;5077490;28;20333;-84
2022/03/29 10:27:42;;;;;;;33.13;18.33;;;;;;;8.35;89.57;99899.13;5079448;28;20025;-83
2022/03/29 10:30:10;;;;;;;33.38;19.23;;;;;;;8.12;86.82;99900.59;5077133;28;20389;-84
2022/03/29 10:32:38;;;;;;;33.53;19.25;;;;;;;8.09;85.81;99899.84;5076944;28;20035;-84
2022/03/29 10:35:19;;;;;;;;;;;;;;;;;;;;;
2022/03/29 10:37:59;;;;;;;35.97;19.15;;;;;;;8.22;88.19;99905.69;5077862;28;20016;-84
2022/03/29 10:40:37;;;;;;;38.67;19.90;;;;;;;8.12;87.70;99897.94;5077104;28;20028;-84
2022/03/29 10:43:32;;;;;;;34.22;19.33;;;;;;;8.63;85.17;99891.34;5078736;28;20060;-84
2022/03/29 10:46:18;;;;;;;37.10;19.75;;;;;;;9.20;84.60;99886.09;5078747;28;20115;-84
2022/03/29 10:49:21;;;;;;;32.90;19.00;;;;;;;9.44;79.67;99878.25;5094769;28;20052;-84
2022/03/29 10:51:54;;;;;;;35.85;20.13;;;;;;;9.09;84.50;99886.44;5095837;28;20078;-83
2022/03/29 10:54:34;;;;;;;36.08;19.63;;;;;;;9.20;80.08;99883.44;5095302;28;20020;-85
2022/03/29 10:57:07;;;;;;;33.72;20.05;;;;;;;8.73;83.21;99866.19;5095867;28;20032;-85
2022/03/29 10:59:35;;;;;;;36.10;19.45;;;;;;;9.01;82.66;99875.16;5096274;28;20018;-84
2022/03/29 11:02:13;;;;;;;38.28;19.98;;;;;;;9.20;80.66;99879.91;5095295;28;20025;-84
2022/03/29 11:05:04;;;;;;;38.00;20.13;;;;;;;9.48;81.33;99874.56;5097578;28;20055;-84
2022/03/29 11:07:40;;;;;;;36.50;19.35;;;;;;;9.65;77.24;99867.81;5097730;28;20027;-84
2022/03/29 11:10:20;;;;;;;36.80;19.90;;;;;;;9.66;80.31;99864.25;5095886;28;20030;-84
2022/03/29 11:12:53;;;;;;;36.88;18.75;;;;;;;9.91;77.47;99860.75;5095801;28;20020;-84
2022/03/29 11:15:27;;;;;;;34.42;19.75;;;;;;;9.64;77.22;99851.91;5096714;28;20029;-84
2022/03/29 11:17:56;;;;;;;36.75;19.35;;;;;;;9.56;77.86;99849.47;5094803;28;20028;-85
2022/03/29 11:20:46;;;;;;;;;;;;;;;;;;;;;
2022/03/29 11:23:14;;;;;;;30.55;18.13;;;;;;;9.94;77.43;99844.66;5095790;28;20051;-85
2022/03/29 11:25:43;;;;;;;33.75;19.08;;;;;;;9.80;77.10;99841.56;5095240;28;20024;-85
2022/03/29 11:28:16;;;;;;;34.90;19.67;;;;;;;9.47;78.12;99840.84;5095866;28;20126;-85
2022/03/29 11:30:47;;;;;;;;;;;;;;;9.22;81.84;99830.13;5096149;28;20087;-84
2022/03/29 11:33:17;;;;;;;38.63;19.77;;;;;;;9.84;78.84;99836.06;5095588;28;20345;-85
2022/03/29 11:35:52;;;;;;;34.38;20.40;;;;;;;9.79;78.50;99829.19;5094030;28;20037;-85
2022/03/29 11:38:20;;;;;;;34.70;20.08;;;;;;;9.61;79.10;99826.22;5095010;28;20038;-85
2022/03/29 11:40:58;;;;;;;38.38;19.90;;;;;;;9.15;79.00;99822.31;5096383;28;20020;-85
2022/03/29 11:43:35;;;;;;;34.35;19.77;;;;;;;9.33;81.04;99819.13;5094715;28;20028;-85